Time;durP1;ratioP1;P1;durP2;ratioP2;P2;SDS_P1;SDS_P2;PMS_P1;PMS_P2;Temp;Humidity;BMP_temperature;BMP_pressure;BME280_temperature;BME280_humidity;BME280_pressure;Samples;Min_cycle;Max_cycle;Signal;HPM_P1;HPM_P2
2022/06/24 00:00:12;;;;;;;2.90;0.98;;;19.20;84.20;;;;;;5048863;28;20177;-76
2022/06/24 00:02:38;;;;;;;0.90;0.90;;;19.20;84.70;;;;;;5053250;28;20191;-76
2022/06/24 00:05:11;;;;;;;1.65;0.80;;;19.10;84.50;;;;;;5049938;28;21542;-75
2022/06/24 00:07:44;;;;;;;0.90;0.90;;;19.10;84.50;;;;;;5048783;28;20257;-76
2022/06/24 00:10:18;;;;;;;0.73;0.73;;;19.00;84.00;;;;;;5053366;28;20989;-75
2022/06/24 00:12:45;;;;;;;0.90;0.90;;;19.00;84.60;;;;;;5053798;28;20191;-76
2022/06/24 00:15:11;;;;;;;1.20;1.20;;;18.90;84.50;;;;;;5056174;28;20188;-76
2022/06/24 00:17:37;;;;;;;0.88;0.88;;;18.90;84.20;;;;;;5049919;28;20737;-76
2022/06/24 00:20:08;;;;;;;1.00;1.00;;;18.90;85.50;;;;;;5057481;28;20261;-76
2022/06/24 00:22:48;;;;;;;3.72;1.20;;;18.80;86.00;;;;;;5046447;28;20673;-76
2022/06/24 00:25:21;;;;;;;1.25;1.20;;;18.80;86.20;;;;;;5049702;28;20191;-77
2022/06/24 00:28:07;;;;;;;0.65;0.65;;;18.80;85.50;;;;;;5050084;28;20207;-76
2022/06/24 00:30:53;;;;;;;1.20;1.10;;;18.80;85.10;;;;;;5050703;28;20179;-77
2022/06/24 00:33:23;;;;;;;0.60;0.60;;;18.80;85.80;;;;;;5055215;28;20189;-76
2022/06/24 00:35:51;;;;;;;0.93;0.93;;;18.80;85.60;;;;;;5047299;28;20191;-76
2022/06/24 00:38:24;;;;;;;0.90;0.90;;;18.70;85.40;;;;;;5045299;28;20223;-76
2022/06/24 00:41:11;;;;;;;0.70;0.70;;;18.70;84.80;;;;;;5046263;28;20188;-76
2022/06/24 00:43:42;;;;;;;1.40;1.30;;;18.70;85.10;;;;;;5045552;28;20206;-75
2022/06/24 00:46:19;;;;;;;0.75;0.75;;;18.70;85.10;;;;;;5050986;28;20179;-75
2022/06/24 00:48:50;;;;;;;1.00;1.00;;;18.70;85.10;;;;;;5042973;28;20187;-76
2022/06/24 00:51:18;;;;;;;1.15;0.98;;;18.70;85.50;;;;;;5046554;28;20192;-76
2022/06/24 00:53:49;;;;;;;1.55;1.27;;;18.70;85.80;;;;;;5047083;28;20291;-76
2022/06/24 00:56:18;;;;;;;0.90;0.90;;;18.70;85.50;;;;;;5050288;28;20603;-76
2022/06/24 00:58:58;;;;;;;2.15;1.00;;;18.70;85.40;;;;;;5047032;28;20215;-76
2022/06/24 01:01:33;;;;;;;1.38;0.90;;;18.70;85.10;;;;;;5049469;28;20191;-75
2022/06/24 01:04:00;;;;;;;0.90;0.90;;;18.70;85.90;;;;;;5054579;28;20804;-76
2022/06/24 01:06:27;;;;;;;1.20;1.20;;;18.80;86.50;;;;;;5048326;28;20207;-76
2022/06/24 01:08:53;;;;;;;1.10;1.10;;;18.80;86.60;;;;;;5048550;28;20195;-75
2022/06/24 01:11:30;;;;;;;1.13;1.13;;;18.80;86.60;;;;;;5046388;28;20211;-76
2022/06/24 01:13:56;;;;;;;1.02;1.02;;;18.80;86.00;;;;;;5054176;28;20210;-76
2022/06/24 01:16:23;;;;;;;5.13;1.23;;;18.80;86.20;;;;;;5051274;28;20264;-77
2022/06/24 01:18:51;;;;;;;1.35;1.25;;;18.80;87.00;;;;;;5050957;28;20227;-76
2022/06/24 01:21:36;;;;;;;1.17;1.13;;;18.90;87.30;;;;;;5051010;28;20576;-76
2022/06/24 01:24:23;;;;;;;2.75;1.00;;;18.90;86.70;;;;;;5050363;28;20218;-76
2022/06/24 01:26:54;;;;;;;2.55;1.15;;;18.80;86.20;;;;;;5052488;28;20191;-76
2022/06/24 01:29:21;;;;;;;3.13;0.90;;;18.80;86.90;;;;;;5042594;28;20190;-76
2022/06/24 01:31:49;;;;;;;1.45;1.45;;;18.80;87.20;;;;;;5046316;28;20184;-76
2022/06/24 01:34:16;;;;;;;1.10;1.10;;;18.80;86.80;;;;;;5052029;28;20973;-76
2022/06/24 01:36:42;;;;;;;2.47;1.30;;;18.80;87.60;;;;;;5050327;28;20179;-76
2022/06/24 01:39:08;;;;;;;6.00;4.00;;;18.80;87.60;;;;;;5043127;28;20675;-76
2022/06/24 01:41:34;;;;;;;8.60;4.72;;;18.80;87.20;;;;;;5053935;28;20679;-76
2022/06/24 01:44:01;;;;;;;4.53;4.22;;;18.80;87.20;;;;;;5046903;28;20686;-75
2022/06/24 01:46:28;;;;;;;7.40;5.15;;;18.70;87.90;;;;;;5049772;28;20175;-75
2022/06/24 01:48:53;;;;;;;8.68;5.18;;;18.70;87.30;;;;;;5053804;28;20209;-76
2022/06/24 01:51:22;;;;;;;4.45;4.15;;;18.70;87.00;;;;;;5042224;28;20184;-76
2022/06/24 01:53:47;;;;;;;3.20;3.05;;;18.70;87.60;;;;;;5047977;28;20183;-75
2022/06/24 01:56:13;;;;;;;6.57;2.40;;;18.70;87.90;;;;;;5048955;28;20183;-75
2022/06/24 01:58:39;;;;;;;2.05;1.35;;;18.70;87.70;;;;;;5046787;28;20219;-76
2022/06/24 02:01:04;;;;;;;1.58;1.58;;;18.60;87.90;;;;;;5050504;28;20732;-76
2022/06/24 02:03:32;;;;;;;1.40;1.40;;;18.60;88.10;;;;;;5045863;28;20207;-76
2022/06/24 02:06:04;;;;;;;2.15;1.92;;;18.60;88.40;;;;;;5042615;28;20187;-76
2022/06/24 02:08:30;;;;;;;1.60;1.50;;;18.60;88.50;;;;;;5048269;28;20985;-75
2022/06/24 02:13:43;;;;;;;2.65;1.40;;;18.50;88.90;;;;;;5050251;28;20266;-75
2022/06/24 02:16:10;;;;;;;1.52;1.52;;;18.50;89.10;;;;;;5048977;28;20251;-76
2022/06/24 02:18:37;;;;;;;1.30;1.30;;;18.50;89.40;;;;;;5048445;28;20294;-76
2022/06/24 02:21:03;;;;;;;1.23;1.20;;;18.40;89.00;;;;;;5049505;28;20191;-76
2022/06/24 02:23:29;;;;;;;1.70;1.60;;;18.40;89.00;;;;;;5046490;28;20191;-76
2022/06/24 02:25:55;;;;;;;2.83;1.60;;;18.40;88.80;;;;;;5050759;28;20188;-76
2022/06/24 02:28:21;;;;;;;3.90;1.42;;;18.30;88.70;;;;;;5047998;28;20193;-76
2022/06/24 02:30:47;;;;;;;1.92;1.40;;;18.30;88.10;;;;;;5051046;28;20191;-76
2022/06/24 02:33:14;;;;;;;1.50;1.50;;;18.30;88.00;;;;;;5054475;28;20180;-76
2022/06/24 02:35:41;;;;;;;1.42;1.42;;;18.30;88.60;;;;;;5052378;28;20192;-76
2022/06/24 02:38:07;;;;;;;3.33;1.40;;;18.20;88.10;;;;;;5053500;28;20257;-76
2022/06/24 02:40:45;;;;;;;2.08;1.40;;;18.20;89.00;;;;;;5050971;28;20219;-75
2022/06/24 02:43:16;;;;;;;2.95;1.73;;;18.20;88.90;;;;;;5041412;28;20661;-76
2022/06/24 02:45:47;;;;;;;1.88;1.77;;;18.20;88.30;;;;;;5053811;28;20218;-75
2022/06/24 02:48:14;;;;;;;1.45;1.45;;;18.20;89.40;;;;;;5050940;28;20233;-77
2022/06/24 02:50:42;;;;;;;1.45;1.42;;;18.20;89.10;;;;;;5046073;28;20530;-76
2022/06/24 02:53:08;;;;;;;1.50;1.42;;;18.20;89.00;;;;;;5050481;28;20196;-76
2022/06/24 02:55:34;;;;;;;1.70;1.60;;;18.20;89.70;;;;;;5047634;28;20922;-76
2022/06/24 02:58:00;;;;;;;1.65;1.55;;;18.20;89.70;;;;;;5045048;28;20180;-75
2022/06/24 03:00:26;;;;;;;4.03;1.33;;;;;;;;;;5045129;28;20249;-76
2022/06/24 03:02:52;;;;;;;1.15;1.15;;;18.20;89.20;;;;;;5037963;28;20263;-75
2022/06/24 03:05:17;;;;;;;1.48;1.40;;;18.20;89.40;;;;;;5048619;28;20262;-75
2022/06/24 03:07:43;;;;;;;1.60;1.50;;;18.20;89.90;;;;;;5043609;28;20275;-76
2022/06/24 03:10:09;;;;;;;1.25;1.25;;;18.20;89.80;;;;;;5049111;28;20179;-76
2022/06/24 03:12:35;;;;;;;1.08;1.08;;;;;;;;;;5053458;28;20183;-76
2022/06/24 03:15:02;;;;;;;1.60;1.60;;;18.10;90.00;;;;;;5052255;28;20240;-76
2022/06/24 03:17:28;;;;;;;2.22;1.50;;;18.10;89.90;;;;;;5083284;28;20183;-76
2022/06/24 03:19:54;;;;;;;1.48;1.38;;;18.10;90.30;;;;;;5051271;28;20811;-76
2022/06/24 03:22:19;;;;;;;1.48;1.38;;;18.10;90.00;;;;;;5052840;28;20300;-76
2022/06/24 03:24:45;;;;;;;3.60;1.60;;;18.00;89.90;;;;;;5055925;28;20769;-76
2022/06/24 03:27:11;;;;;;;1.33;1.23;;;18.00;90.10;;;;;;5048295;28;20720;-76
2022/06/24 03:29:37;;;;;;;1.20;1.20;;;;;;;;;;5048610;28;20191;-76
2022/06/24 03:32:02;;;;;;;1.27;1.27;;;18.00;89.70;;;;;;5048958;28;20185;-76
2022/06/24 03:34:28;;;;;;;1.08;1.08;;;18.00;89.60;;;;;;5052805;28;20199;-76
2022/06/24 03:36:54;;;;;;;1.35;1.33;;;;;;;;;;5053659;28;20187;-76
2022/06/24 03:39:20;;;;;;;3.38;1.40;;;18.00;90.00;;;;;;5048069;28;21023;-76
2022/06/24 03:41:46;;;;;;;1.23;1.17;;;;;;;;;;5051621;28;20193;-76
2022/06/24 03:44:12;;;;;;;1.13;1.13;;;;;;;;;;5053259;28;20206;-76
2022/06/24 03:46:37;;;;;;;1.27;1.27;;;18.10;89.20;;;;;;5045387;28;20326;-77
2022/06/24 03:49:03;;;;;;;1.35;1.35;;;18.10;90.40;;;;;;5041364;28;20272;-77
2022/06/24 03:51:29;;;;;;;2.35;1.65;;;;;;;;;;5043862;28;20191;-77
2022/06/24 03:53:55;;;;;;;1.20;1.20;;;18.20;89.70;;;;;;5048191;28;20202;-77
2022/06/24 03:56:21;;;;;;;1.65;1.60;;;18.30;90.20;;;;;;5047117;28;20575;-77
2022/06/24 03:58:47;;;;;;;1.77;1.63;;;;;;;;;;5052235;28;20340;-76
2022/06/24 04:01:12;;;;;;;1.92;1.83;;;18.30;88.90;;;;;;5048046;28;20557;-76
2022/06/24 04:03:38;;;;;;;2.00;1.63;;;;;;;;;;5051172;28;20242;-76
2022/06/24 04:06:04;;;;;;;2.47;1.50;;;18.40;89.30;;;;;;5049428;28;20270;-76
2022/06/24 04:08:30;;;;;;;1.55;1.55;;;;;;;;;;5053134;28;20283;-76
2022/06/24 04:10:56;;;;;;;1.55;1.55;;;18.40;89.70;;;;;;5046107;28;20567;-75
2022/06/24 04:13:22;;;;;;;2.97;1.27;;;18.50;89.00;;;;;;5044581;28;20648;-76
2022/06/24 04:15:49;;;;;;;1.33;1.33;;;18.50;89.00;;;;;;5053557;28;20195;-76
2022/06/24 04:18:16;;;;;;;2.15;1.70;;;18.60;89.60;;;;;;5050635;28;20211;-76
2022/06/24 04:20:42;;;;;;;2.22;1.92;;;18.70;89.60;;;;;;5049835;28;20214;-76
2022/06/24 04:23:08;;;;;;;3.75;1.55;;;18.70;89.30;;;;;;5047114;28;20211;-76
2022/06/24 04:25:33;;;;;;;2.08;2.03;;;18.70;89.00;;;;;;5048229;28;20225;-76
2022/06/24 04:27:59;;;;;;;3.25;1.75;;;18.80;88.90;;;;;;5058471;28;20712;-77
2022/06/24 04:30:25;;;;;;;1.65;1.65;;;18.70;88.90;;;;;;5050358;28;20180;-76
2022/06/24 04:32:51;;;;;;;1.95;1.95;;;18.80;88.80;;;;;;5056343;28;20674;-77
2022/06/24 04:35:17;;;;;;;1.90;1.85;;;18.80;88.70;;;;;;5051755;28;20635;-76
2022/06/24 04:37:43;;;;;;;2.10;1.90;;;18.80;89.20;;;;;;5048740;28;20938;-76
2022/06/24 04:40:13;;;;;;;3.47;2.33;;;18.80;88.60;;;;;;5048608;28;20755;-76
2022/06/24 04:42:39;;;;;;;2.33;2.20;;;18.80;88.30;;;;;;5046831;28;20262;-76
2022/06/24 04:45:06;;;;;;;2.40;2.30;;;18.90;88.60;;;;;;5044846;28;20184;-78
2022/06/24 04:47:32;;;;;;;4.30;3.33;;;19.00;88.50;;;;;;5048829;28;20180;-74
2022/06/24 04:49:57;;;;;;;2.03;1.90;;;19.10;88.40;;;;;;5047180;28;20202;-74
2022/06/24 04:52:23;;;;;;;3.65;1.80;;;19.20;88.30;;;;;;5049726;28;20217;-74
2022/06/24 04:54:50;;;;;;;4.88;3.25;;;;;;;;;;5047517;28;20289;-74
2022/06/24 04:57:16;;;;;;;10.68;4.07;;;19.20;88.30;;;;;;5050050;28;20193;-75
2022/06/24 04:59:42;;;;;;;5.07;3.63;;;19.30;88.00;;;;;;5058047;28;20211;-75
2022/06/24 05:02:08;;;;;;;3.55;3.17;;;;;;;;;;5051920;28;20572;-76
2022/06/24 05:04:37;;;;;;;5.30;3.88;;;19.30;87.80;;;;;;5048119;28;20190;-73
2022/06/24 05:07:03;;;;;;;3.92;2.75;;;19.30;88.00;;;;;;5051720;28;20175;-75
2022/06/24 05:09:29;;;;;;;5.97;3.63;;;19.40;88.10;;;;;;5043143;28;20857;-75
2022/06/24 05:11:55;;;;;;;2.95;2.72;;;;;;;;;;5052901;28;20188;-74
2022/06/24 05:14:21;;;;;;;3.75;3.00;;;19.50;88.20;;;;;;5050370;28;20282;-77
2022/06/24 05:16:47;;;;;;;2.35;2.25;;;19.60;88.00;;;;;;5050540;28;20989;-75
2022/06/24 05:19:12;;;;;;;5.07;3.47;;;19.60;88.20;;;;;;5050393;28;20219;-76
2022/06/24 05:21:38;;;;;;;3.50;3.20;;;19.80;88.30;;;;;;5047608;28;20189;-75
2022/06/24 05:24:04;;;;;;;4.88;3.63;;;19.90;88.10;;;;;;5046813;28;20225;-75
2022/06/24 05:26:30;;;;;;;3.40;3.22;;;;;;;;;;5043909;28;20218;-78
2022/06/24 05:28:56;;;;;;;2.90;2.80;;;20.00;87.90;;;;;;5049026;28;20748;-75
2022/06/24 05:31:22;;;;;;;2.90;2.78;;;;;;;;;;5052409;28;20179;-75
2022/06/24 05:33:47;;;;;;;2.95;2.83;;;20.00;87.70;;;;;;5047918;28;20184;-76
2022/06/24 05:36:13;;;;;;;3.42;3.05;;;20.00;87.70;;;;;;5052856;28;20256;-74
2022/06/24 05:38:41;;;;;;;3.58;3.30;;;;;;;;;;5053362;28;20285;-75
2022/06/24 05:41:07;;;;;;;3.45;3.25;;;19.90;88.40;;;;;;5053251;28;20646;-75
2022/06/24 05:43:33;;;;;;;3.38;3.25;;;19.90;88.30;;;;;;5050337;28;20207;-75
2022/06/24 05:45:58;;;;;;;2.92;2.83;;;20.00;88.10;;;;;;5051547;28;20175;-76
2022/06/24 05:48:24;;;;;;;3.60;3.40;;;20.00;87.80;;;;;;5044258;28;20187;-75
2022/06/24 05:50:50;;;;;;;3.08;2.88;;;;;;;;;;5044248;28;20217;-75
2022/06/24 05:56:00;;;;;;;2.95;2.65;;;20.00;87.40;;;;;;5050441;28;20373;-77
2022/06/24 05:58:27;;;;;;;5.90;2.90;;;20.10;87.30;;;;;;5050846;28;20215;-76
2022/06/24 06:00:56;;;;;;;4.40;2.60;;;20.10;87.40;;;;;;5052387;28;20183;-74
2022/06/24 06:03:26;;;;;;;2.40;2.25;;;20.20;87.40;;;;;;5052506;28;20179;-76
2022/06/24 06:05:52;;;;;;;4.40;2.70;;;20.30;87.20;;;;;;5051528;28;20229;-75
2022/06/24 06:08:19;;;;;;;2.65;2.42;;;20.30;87.40;;;;;;5054758;28;20179;-76
2022/06/24 06:10:45;;;;;;;2.42;2.08;;;20.40;87.30;;;;;;5051933;28;20688;-75
2022/06/24 06:13:12;;;;;;;3.95;3.00;;;20.50;87.10;;;;;;5050747;28;20176;-76
2022/06/24 06:15:38;;;;;;;6.68;3.40;;;20.70;86.60;;;;;;5050123;28;20652;-76
2022/06/24 06:18:05;;;;;;;3.38;3.17;;;20.70;86.00;;;;;;5048504;28;20321;-75
2022/06/24 06:20:31;;;;;;;3.00;2.80;;;20.80;85.90;;;;;;5050074;28;20175;-76
2022/06/24 06:22:56;;;;;;;2.47;2.38;;;20.80;86.50;;;;;;5047698;28;20199;-76
2022/06/24 06:25:22;;;;;;;2.92;2.35;;;20.80;85.50;;;;;;5046341;28;20187;-76
2022/06/24 06:27:49;;;;;;;2.70;2.33;;;20.80;85.50;;;;;;5050947;28;20180;-75
2022/06/24 06:30:15;;;;;;;2.08;1.98;;;20.80;86.00;;;;;;5053025;28;20777;-75
2022/06/24 06:32:41;;;;;;;2.00;2.00;;;20.70;85.60;;;;;;5049330;28;20537;-77
2022/06/24 06:35:07;;;;;;;2.10;2.10;;;20.70;85.60;;;;;;5050561;28;20190;-75
2022/06/24 06:37:33;;;;;;;1.83;1.83;;;20.70;85.90;;;;;;5052043;28;20179;-76
2022/06/24 06:39:59;;;;;;;5.88;2.13;;;20.70;85.80;;;;;;5052947;28;20214;-76
2022/06/24 06:42:25;;;;;;;2.28;2.17;;;20.80;86.20;;;;;;5049325;28;20264;-75
2022/06/24 06:44:51;;;;;;;2.45;2.35;;;20.70;86.00;;;;;;5054215;28;20187;-75
2022/06/24 06:47:16;;;;;;;3.15;1.98;;;20.70;85.60;;;;;;5051594;28;20191;-76
2022/06/24 06:49:42;;;;;;;2.50;2.30;;;20.80;85.80;;;;;;5049335;28;20692;-75
2022/06/24 06:52:08;;;;;;;1.77;1.77;;;20.80;85.50;;;;;;5051913;28;20553;-75
2022/06/24 06:54:34;;;;;;;1.60;1.60;;;20.90;85.60;;;;;;5051931;28;20830;-75
2022/06/24 06:57:00;;;;;;;4.22;2.72;;;20.90;85.00;;;;;;5051361;28;20460;-75
2022/06/24 06:59:26;;;;;;;2.00;1.88;;;21.00;85.60;;;;;;5051638;28;20215;-75
2022/06/24 07:01:51;;;;;;;1.92;1.83;;;21.00;85.30;;;;;;5050905;28;20272;-75
2022/06/24 07:04:17;;;;;;;2.10;2.00;;;21.00;84.80;;;;;;5053770;28;20225;-76
2022/06/24 07:06:46;;;;;;;1.65;1.65;;;21.00;84.60;;;;;;5051229;28;20462;-75
2022/06/24 07:09:12;;;;;;;2.05;1.90;;;21.00;84.70;;;;;;5051823;28;20261;-75
2022/06/24 07:11:37;;;;;;;2.03;1.92;;;21.00;84.10;;;;;;5052447;28;20252;-75
2022/06/24 07:14:03;;;;;;;1.85;1.75;;;;;;;;;;5051153;28;20199;-76
2022/06/24 07:16:30;;;;;;;2.53;2.20;;;21.20;84.90;;;;;;5054757;28;20739;-76
2022/06/24 07:18:55;;;;;;;3.33;1.90;;;21.20;84.30;;;;;;5049579;28;20215;-76
2022/06/24 07:21:21;;;;;;;1.63;1.63;;;21.30;85.00;;;;;;5053324;28;20187;-76
2022/06/24 07:23:47;;;;;;;1.65;1.58;;;21.40;83.90;;;;;;5050784;28;21054;-76
2022/06/24 07:26:12;;;;;;;1.92;1.83;;;21.50;83.80;;;;;;5051554;28;20583;-75
2022/06/24 07:28:38;;;;;;;2.00;2.00;;;21.60;83.40;;;;;;5049741;28;20195;-76
2022/06/24 07:31:15;;;;;;;2.25;1.88;;;21.60;83.40;;;;;;5050791;28;20236;-75
2022/06/24 07:33:41;;;;;;;1.88;1.88;;;21.70;83.10;;;;;;5050307;28;20171;-75
2022/06/24 07:36:07;;;;;;;4.18;2.22;;;21.70;83.30;;;;;;5051887;28;20762;-76
2022/06/24 07:38:32;;;;;;;2.10;2.00;;;21.80;82.90;;;;;;5051540;28;20208;-75
2022/06/24 07:40:59;;;;;;;1.75;1.65;;;21.90;82.90;;;;;;5052890;28;20171;-77
2022/06/24 07:43:24;;;;;;;2.67;2.13;;;22.00;83.30;;;;;;5049880;28;20179;-75
2022/06/24 07:45:53;;;;;;;2.55;2.15;;;22.00;81.80;;;;;;5054221;28;20186;-75
2022/06/24 07:48:19;;;;;;;2.00;1.90;;;22.10;80.50;;;;;;5047868;28;20207;-76
2022/06/24 07:50:45;;;;;;;2.10;2.00;;;;;;;;;;5048747;28;20178;-76
2022/06/24 07:53:11;;;;;;;1.48;1.40;;;22.20;81.90;;;;;;5051459;28;20681;-76
2022/06/24 07:58:21;;;;;;;2.42;2.25;;;22.40;81.30;;;;;;5054167;28;20218;-75
2022/06/24 08:00:48;;;;;;;2.47;2.30;;;22.50;80.80;;;;;;5052620;28;20183;-75
2022/06/24 08:03:16;;;;;;;2.08;1.85;;;22.50;79.90;;;;;;5058828;28;20573;-75
2022/06/24 08:05:42;;;;;;;1.48;1.48;;;22.50;79.10;;;;;;5050988;28;20183;-75
2022/06/24 08:08:09;;;;;;;2.33;1.80;;;22.60;79.50;;;;;;5056283;28;20174;-75
2022/06/24 08:10:35;;;;;;;1.75;1.65;;;22.70;80.30;;;;;;5054124;28;20660;-75
2022/06/24 08:13:00;;;;;;;1.90;1.80;;;22.70;79.90;;;;;;5054168;28;20207;-75
2022/06/24 08:15:26;;;;;;;1.75;1.75;;;22.80;80.40;;;;;;5052601;28;20199;-76
2022/06/24 08:17:53;;;;;;;2.08;1.73;;;22.80;80.20;;;;;;5056014;28;20555;-76
2022/06/24 08:20:19;;;;;;;3.60;1.58;;;;;;;;;;5050881;28;20207;-75
2022/06/24 08:22:45;;;;;;;1.45;1.45;;;;;;;;;;5051928;28;20649;-75
2022/06/24 08:25:11;;;;;;;1.80;1.70;;;23.10;79.70;;;;;;5053240;28;20175;-75
2022/06/24 08:27:37;;;;;;;1.75;1.75;;;23.20;78.70;;;;;;5053636;28;20187;-75
2022/06/24 08:30:04;;;;;;;1.65;1.65;;;23.20;78.00;;;;;;5053933;28;20194;-75
2022/06/24 08:32:29;;;;;;;1.55;1.55;;;23.20;77.90;;;;;;5050948;28;20179;-76
2022/06/24 08:34:55;;;;;;;2.00;2.00;;;23.20;77.90;;;;;;5051694;28;20699;-76
2022/06/24 08:37:21;;;;;;;2.08;1.98;;;23.10;77.20;;;;;;5055100;28;20457;-76
2022/06/24 08:39:47;;;;;;;1.60;1.60;;;23.10;77.60;;;;;;5053601;28;20246;-76
2022/06/24 08:42:13;;;;;;;1.67;1.67;;;23.10;77.40;;;;;;5049328;28;20192;-75
2022/06/24 08:44:41;;;;;;;1.27;1.27;;;23.10;77.20;;;;;;5051587;28;20248;-76
2022/06/24 08:47:12;;;;;;;1.13;1.13;;;23.10;77.60;;;;;;5043593;28;20620;-73
2022/06/24 08:49:38;;;;;;;2.05;1.95;;;;;;;;;;5046329;28;20187;-74
2022/06/24 08:52:08;;;;;;;1.85;1.25;;;23.30;77.90;;;;;;5049789;28;20546;-74
2022/06/24 08:54:36;;;;;;;1.60;1.60;;;23.40;77.60;;;;;;5047571;28;20186;-73
2022/06/24 08:57:02;;;;;;;1.10;1.10;;;23.50;77.80;;;;;;5049830;28;20183;-75
2022/06/24 08:59:29;;;;;;;1.02;1.02;;;23.50;77.70;;;;;;5046089;28;20781;-73
2022/06/24 09:01:55;;;;;;;1.27;1.27;;;;;;;;;;5052346;28;20571;-72
2022/06/24 09:04:24;;;;;;;1.17;1.17;;;23.80;76.40;;;;;;5046340;28;20180;-74
2022/06/24 09:06:51;;;;;;;1.02;1.02;;;23.90;76.00;;;;;;5048979;28;20218;-73
2022/06/24 09:09:26;;;;;;;3.35;1.45;;;23.90;76.00;;;;;;5053674;28;20240;-73
2022/06/24 09:11:55;;;;;;;1.20;1.20;;;24.00;76.40;;;;;;5051336;28;20252;-73
2022/06/24 09:14:20;;;;;;;1.60;1.50;;;24.00;77.00;;;;;;5041822;28;20203;-73
2022/06/24 09:16:46;;;;;;;1.25;1.25;;;24.20;74.80;;;;;;5051066;28;20658;-73
2022/06/24 09:19:16;;;;;;;1.50;1.50;;;24.20;74.80;;;;;;5050796;28;20607;-73
2022/06/24 09:21:43;;;;;;;1.38;1.38;;;24.30;74.30;;;;;;5048715;28;20233;-73
2022/06/24 09:24:10;;;;;;;1.10;1.10;;;24.30;74.10;;;;;;5054344;28;20519;-74
2022/06/24 09:26:36;;;;;;;2.03;1.23;;;24.30;74.30;;;;;;5049366;28;20285;-74
2022/06/24 09:29:07;;;;;;;1.00;1.00;;;24.40;74.20;;;;;;5052570;28;20279;-75
2022/06/24 09:31:34;;;;;;;1.75;1.23;;;24.40;72.60;;;;;;5050809;28;20214;-74
2022/06/24 09:34:14;;;;;;;1.42;1.42;;;24.40;74.20;;;;;;5050646;28;20184;-75
2022/06/24 09:36:42;;;;;;;1.17;1.17;;;24.40;73.00;;;;;;5048025;28;20182;-75
2022/06/24 09:39:11;;;;;;;1.20;1.17;;;24.50;73.40;;;;;;5054927;28;20214;-75
2022/06/24 09:41:45;;;;;;;1.00;1.00;;;24.60;73.60;;;;;;5050961;28;20606;-74
2022/06/24 09:44:11;;;;;;;1.10;1.10;;;24.70;74.00;;;;;;5046598;28;20175;-75
2022/06/24 09:46:37;;;;;;;1.40;1.20;;;24.70;72.70;;;;;;5048926;28;20176;-74
2022/06/24 09:49:05;;;;;;;1.15;1.15;;;24.80;73.20;;;;;;5043493;28;20190;-75
2022/06/24 09:51:31;;;;;;;1.25;1.13;;;25.00;73.70;;;;;;5046428;28;20571;-75
2022/06/24 09:53:58;;;;;;;5.45;1.20;;;25.00;74.20;;;;;;5046776;28;20191;-75
2022/06/24 09:56:24;;;;;;;1.05;1.05;;;25.20;73.50;;;;;;5053324;28;20175;-74
2022/06/24 10:01:37;;;;;;;1.30;0.80;;;25.50;70.90;;;;;;5046962;28;20313;-75
2022/06/24 10:04:05;;;;;;;1.08;0.93;;;25.60;68.50;;;;;;5048188;28;20333;-74
2022/06/24 10:06:36;;;;;;;1.67;1.63;;;25.70;70.10;;;;;;5048486;28;20565;-75
2022/06/24 10:09:07;;;;;;;1.25;1.10;;;25.80;71.00;;;;;;5052178;28;20612;-74
2022/06/24 10:11:34;;;;;;;1.00;1.00;;;26.00;71.60;;;;;;5050748;28;20245;-75
2022/06/24 10:14:01;;;;;;;0.82;0.82;;;26.20;69.40;;;;;;5045642;28;20237;-75
2022/06/24 10:16:26;;;;;;;1.08;1.08;;;26.30;67.90;;;;;;5052091;28;20176;-73
2022/06/24 10:18:53;;;;;;;0.82;0.82;;;26.50;66.60;;;;;;5050353;28;20222;-74
2022/06/24 10:21:19;;;;;;;1.25;0.80;;;26.60;66.00;;;;;;5050967;28;20698;-75
2022/06/24 10:23:50;;;;;;;0.80;0.80;;;26.70;64.50;;;;;;5048881;28;20184;-74
2022/06/24 10:26:19;;;;;;;0.75;0.63;;;26.90;65.50;;;;;;5052390;28;20199;-74
2022/06/24 10:29:03;;;;;;;0.80;0.80;;;27.10;65.80;;;;;;5046794;28;20186;-74
2022/06/24 10:34:21;;;;;;;2.72;0.95;;;27.20;64.30;;;;;;5046700;28;20187;-75
2022/06/24 10:36:58;;;;;;;1.08;0.95;;;27.30;64.60;;;;;;5046576;28;20599;-75
2022/06/24 10:39:27;;;;;;;0.73;0.73;;;27.50;63.00;;;;;;5049237;28;20220;-74
2022/06/24 10:42:07;;;;;;;2.05;1.05;;;27.90;63.10;;;;;;5051001;28;20187;-74
2022/06/24 10:44:38;;;;;;;1.17;1.05;;;28.10;62.50;;;;;;5049667;28;20545;-74
2022/06/24 10:47:12;;;;;;;1.05;1.05;;;28.40;62.70;;;;;;5051642;28;21019;-74
2022/06/24 10:49:56;;;;;;;1.60;1.00;;;28.50;61.70;;;;;;5041612;28;20240;-74
2022/06/24 10:52:32;;;;;;;1.00;1.00;;;28.70;62.30;;;;;;5052113;28;20237;-74
2022/06/24 10:55:16;;;;;;;0.90;0.90;;;29.20;60.50;;;;;;5048265;28;20259;-74
2022/06/24 10:57:47;;;;;;;1.27;1.27;;;29.80;59.90;;;;;;5047805;28;20180;-74
2022/06/24 11:00:16;;;;;;;1.85;1.13;;;30.10;60.50;;;;;;5041552;28;20271;-74
2022/06/24 11:02:44;;;;;;;0.93;0.93;;;30.50;60.00;;;;;;5043366;28;20213;-73
2022/06/24 11:05:15;;;;;;;1.00;1.00;;;31.00;58.70;;;;;;5049086;28;20183;-73
2022/06/24 11:07:48;;;;;;;1.73;1.00;;;31.60;60.10;;;;;;5044940;28;20592;-73
2022/06/24 11:10:15;;;;;;;2.47;1.05;;;32.30;56.90;;;;;;5040851;28;20217;-72
2022/06/24 11:12:41;;;;;;;1.80;1.20;;;32.90;55.60;;;;;;5044606;28;20187;-73
2022/06/24 11:15:07;;;;;;;0.95;0.95;;;33.50;54.50;;;;;;5051568;28;20248;-73
2022/06/24 11:17:40;;;;;;;0.80;0.80;;;34.00;51.70;;;;;;5052219;28;20237;-73
2022/06/24 11:20:06;;;;;;;0.90;0.90;;;34.10;50.90;;;;;;5052253;28;20219;-73
2022/06/24 11:22:46;;;;;;;0.93;0.93;;;34.40;50.10;;;;;;5051996;28;20735;-73
2022/06/24 11:25:17;;;;;;;0.85;0.85;;;34.30;50.20;;;;;;5047190;28;20194;-73
2022/06/24 11:27:43;;;;;;;0.90;0.90;;;34.30;49.90;;;;;;5046805;28;20183;-73
2022/06/24 11:30:09;;;;;;;1.00;1.00;;;34.20;52.00;;;;;;5050227;28;20744;-73
2022/06/24 11:32:53;;;;;;;0.90;0.90;;;34.30;51.00;;;;;;5048571;28;20186;-73
2022/06/24 11:35:20;;;;;;;0.80;0.80;;;34.50;51.70;;;;;;5051462;28;20266;-73
2022/06/24 11:37:45;;;;;;;1.30;1.20;;;34.20;51.40;;;;;;5049208;28;20305;-73
2022/06/24 11:40:21;;;;;;;1.00;1.00;;;34.20;54.80;;;;;;5052975;28;20227;-72
2022/06/24 11:42:47;;;;;;;2.75;1.35;;;34.30;53.10;;;;;;5054918;28;20674;-73
2022/06/24 11:45:13;;;;;;;2.38;1.00;;;34.60;53.20;;;;;;5053995;28;20257;-73
2022/06/24 11:47:39;;;;;;;0.88;0.88;;;35.10;53.00;;;;;;5054702;28;20600;-73
2022/06/24 11:50:05;;;;;;;1.80;1.20;;;35.50;51.40;;;;;;5047909;28;20179;-73
2022/06/24 11:52:45;;;;;;;2.13;1.10;;;36.00;50.70;;;;;;5049273;28;20612;-74
2022/06/24 11:55:34;;;;;;;0.90;0.90;;;36.60;50.20;;;;;;5048393;28;20213;-73
2022/06/24 11:58:03;;;;;;;0.70;0.70;;;37.00;50.10;;;;;;5055200;28;20195;-73
2022/06/24 12:00:32;;;;;;;0.95;0.95;;;37.50;48.60;;;;;;5053755;28;20704;-71
2022/06/24 12:03:00;;;;;;;1.75;1.15;;;37.40;46.90;;;;;;5050619;28;20610;-73
2022/06/24 12:05:28;;;;;;;0.82;0.75;;;37.20;46.90;;;;;;5051417;28;20182;-73
2022/06/24 12:07:55;;;;;;;1.15;1.02;;;37.30;48.50;;;;;;5037604;28;20187;-73
2022/06/24 12:10:21;;;;;;;0.90;0.90;;;37.60;49.50;;;;;;5042605;28;20219;-73
2022/06/24 12:12:55;;;;;;;0.93;0.90;;;37.90;48.50;;;;;;5041601;28;20669;-73
2022/06/24 12:15:26;;;;;;;1.30;0.77;;;38.10;46.40;;;;;;5041021;28;20194;-73
2022/06/24 12:17:53;;;;;;;1.08;1.08;;;37.80;46.30;;;;;;5040189;28;20183;-73
2022/06/24 12:20:26;;;;;;;0.65;0.65;;;37.80;47.90;;;;;;5041957;28;20666;-72
2022/06/24 12:23:17;;;;;;;1.10;1.10;;;37.80;48.80;;;;;;5042426;28;20187;-72
2022/06/24 12:25:48;;;;;;;0.95;0.80;;;37.60;48.00;;;;;;5041815;28;20190;-73
2022/06/24 12:28:25;;;;;;;0.73;0.73;;;37.30;48.90;;;;;;5041890;28;20718;-73
2022/06/24 12:31:06;;;;;;;0.90;0.90;;;37.10;48.30;;;;;;5041699;28;20619;-72
2022/06/24 12:33:53;;;;;;;1.20;1.20;;;36.80;48.00;;;;;;5042920;28;20194;-72
2022/06/24 12:36:22;;;;;;;1.00;1.00;;;36.30;48.40;;;;;;5043017;28;20544;-72
2022/06/24 12:38:48;;;;;;;0.80;0.80;;;36.00;50.70;;;;;;5042236;28;20586;-75
2022/06/24 12:41:17;;;;;;;1.17;1.17;;;36.10;52.60;;;;;;5038049;28;20180;-73
2022/06/24 12:44:03;;;;;;;0.95;0.95;;;36.00;50.60;;;;;;5039978;28;20183;-73
2022/06/24 12:46:35;;;;;;;1.95;1.02;;;35.90;49.70;;;;;;5040595;28;20647;-74
2022/06/24 12:51:57;;;;;;;0.90;0.90;;;36.70;48.20;;;;;;5040484;28;20627;-73
2022/06/24 12:54:22;;;;;;;3.05;1.08;;;37.40;49.10;;;;;;5040589;28;20187;-73
2022/06/24 12:56:48;;;;;;;0.80;0.80;;;37.80;49.20;;;;;;5042712;28;20571;-73
2022/06/24 12:59:14;;;;;;;0.85;0.85;;;38.40;48.50;;;;;;5036712;28;20610;-73
2022/06/24 13:01:42;;;;;;;0.93;0.93;;;38.90;47.30;;;;;;5041319;28;20224;-73
2022/06/24 13:04:08;;;;;;;1.40;0.98;;;39.40;46.50;;;;;;5037719;28;20179;-73
2022/06/24 13:06:34;;;;;;;1.02;1.02;;;39.80;45.30;;;;;;5032899;28;20179;-74
2022/06/24 13:09:00;;;;;;;1.10;1.10;;;40.20;46.90;;;;;;5042529;28;20194;-73
2022/06/24 13:11:25;;;;;;;1.00;1.00;;;40.60;45.80;;;;;;5038535;28;20191;-74
2022/06/24 13:13:51;;;;;;;0.93;0.90;;;40.80;47.10;;;;;;5043201;28;20198;-73
2022/06/24 13:16:17;;;;;;;0.90;0.90;;;40.90;44.90;;;;;;5042170;28;20195;-73